sensor_id;sensor_type;location;lat;lon;timestamp;P1;durP1;ratioP1;P2;durP2;ratioP2
55815;SDS011;41744;52.404;16.942;2023-05-10T00:00:38;10.50;;;4.10;;
55815;SDS011;41744;52.404;16.942;2023-05-10T00:03:08;9.60;;;3.97;;
55815;SDS011;41744;52.404;16.942;2023-05-10T00:05:34;11.13;;;4.07;;
55815;SDS011;41744;52.404;16.942;2023-05-10T00:08:00;10.00;;;4.10;;
55815;SDS011;41744;52.404;16.942;2023-05-10T00:10:26;9.50;;;3.90;;
55815;SDS011;41744;52.404;16.942;2023-05-10T00:12:52;15.70;;;4.30;;
55815;SDS011;41744;52.404;16.942;2023-05-10T00:15:18;9.47;;;3.53;;
55815;SDS011;41744;52.404;16.942;2023-05-10T00:17:44;9.37;;;3.73;;
55815;SDS011;41744;52.404;16.942;2023-05-10T00:20:10;10.03;;;4.23;;
55815;SDS011;41744;52.404;16.942;2023-05-10T00:22:36;6.77;;;3.20;;
55815;SDS011;41744;52.404;16.942;2023-05-10T00:25:02;5.83;;;3.20;;
55815;SDS011;41744;52.404;16.942;2023-05-10T00:27:28;8.73;;;4.00;;
55815;SDS011;41744;52.404;16.942;2023-05-10T00:29:54;8.23;;;3.73;;
55815;SDS011;41744;52.404;16.942;2023-05-10T00:32:20;9.73;;;3.73;;
55815;SDS011;41744;52.404;16.942;2023-05-10T00:34:46;7.70;;;3.53;;
55815;SDS011;41744;52.404;16.942;2023-05-10T00:37:12;7.70;;;3.33;;
55815;SDS011;41744;52.404;16.942;2023-05-10T00:39:38;8.17;;;3.70;;
55815;SDS011;41744;52.404;16.942;2023-05-10T00:42:04;11.10;;;4.10;;
55815;SDS011;41744;52.404;16.942;2023-05-10T00:44:30;7.77;;;3.20;;
55815;SDS011;41744;52.404;16.942;2023-05-10T00:46:56;10.53;;;3.73;;
55815;SDS011;41744;52.404;16.942;2023-05-10T00:49:23;9.50;;;4.17;;
55815;SDS011;41744;52.404;16.942;2023-05-10T00:51:49;11.27;;;3.60;;
55815;SDS011;41744;52.404;16.942;2023-05-10T00:54:15;8.70;;;3.80;;
55815;SDS011;41744;52.404;16.942;2023-05-10T00:56:41;10.13;;;3.77;;
55815;SDS011;41744;52.404;16.942;2023-05-10T00:59:13;10.83;;;3.63;;
55815;SDS011;41744;52.404;16.942;2023-05-10T01:01:41;8.93;;;3.97;;
55815;SDS011;41744;52.404;16.942;2023-05-10T01:04:07;9.83;;;3.90;;
55815;SDS011;41744;52.404;16.942;2023-05-10T01:06:34;8.90;;;3.50;;
55815;SDS011;41744;52.404;16.942;2023-05-10T01:09:00;11.13;;;4.17;;
55815;SDS011;41744;52.404;16.942;2023-05-10T01:11:26;9.27;;;4.10;;
55815;SDS011;41744;52.404;16.942;2023-05-10T01:13:54;9.60;;;3.93;;
55815;SDS011;41744;52.404;16.942;2023-05-10T01:16:21;6.43;;;3.57;;
55815;SDS011;41744;52.404;16.942;2023-05-10T01:18:47;10.60;;;3.23;;
55815;SDS011;41744;52.404;16.942;2023-05-10T01:21:19;12.47;;;3.87;;
55815;SDS011;41744;52.404;16.942;2023-05-10T01:31:58;13.30;;;4.33;;
55815;SDS011;41744;52.404;16.942;2023-05-10T01:34:29;13.10;;;3.70;;
55815;SDS011;41744;52.404;16.942;2023-05-10T01:37:01;12.83;;;4.03;;
55815;SDS011;41744;52.404;16.942;2023-05-10T01:39:31;12.97;;;3.97;;
55815;SDS011;41744;52.404;16.942;2023-05-10T01:47:10;9.53;;;3.93;;
55815;SDS011;41744;52.404;16.942;2023-05-10T01:49:39;6.83;;;3.47;;
55815;SDS011;41744;52.404;16.942;2023-05-10T01:52:09;12.23;;;3.93;;
55815;SDS011;41744;52.404;16.942;2023-05-10T01:54:37;11.03;;;3.73;;
55815;SDS011;41744;52.404;16.942;2023-05-10T01:57:05;8.73;;;3.80;;
55815;SDS011;41744;52.404;16.942;2023-05-10T01:59:34;8.60;;;3.50;;
55815;SDS011;41744;52.404;16.942;2023-05-10T02:02:07;7.90;;;3.67;;
55815;SDS011;41744;52.404;16.942;2023-05-10T02:04:36;7.13;;;3.83;;
55815;SDS011;41744;52.404;16.942;2023-05-10T02:07:03;7.17;;;3.87;;
55815;SDS011;41744;52.404;16.942;2023-05-10T02:09:29;9.57;;;3.77;;
55815;SDS011;41744;52.404;16.942;2023-05-10T02:11:56;7.90;;;3.37;;
55815;SDS011;41744;52.404;16.942;2023-05-10T02:14:24;8.40;;;3.53;;
55815;SDS011;41744;52.404;16.942;2023-05-10T02:16:51;6.10;;;3.37;;
55815;SDS011;41744;52.404;16.942;2023-05-10T02:19:19;8.67;;;3.83;;
55815;SDS011;41744;52.404;16.942;2023-05-10T02:21:45;6.73;;;3.43;;
55815;SDS011;41744;52.404;16.942;2023-05-10T02:24:12;9.37;;;3.60;;
55815;SDS011;41744;52.404;16.942;2023-05-10T02:26:38;10.90;;;4.00;;
55815;SDS011;41744;52.404;16.942;2023-05-10T02:29:05;9.07;;;3.70;;
55815;SDS011;41744;52.404;16.942;2023-05-10T02:31:32;9.27;;;3.70;;
55815;SDS011;41744;52.404;16.942;2023-05-10T02:33:59;9.40;;;3.80;;
55815;SDS011;41744;52.404;16.942;2023-05-10T02:36:26;10.87;;;4.40;;
55815;SDS011;41744;52.404;16.942;2023-05-10T02:38:53;8.07;;;3.50;;
55815;SDS011;41744;52.404;16.942;2023-05-10T02:41:20;7.80;;;3.60;;
55815;SDS011;41744;52.404;16.942;2023-05-10T02:43:48;5.90;;;3.53;;
55815;SDS011;41744;52.404;16.942;2023-05-10T02:46:16;8.30;;;3.93;;
55815;SDS011;41744;52.404;16.942;2023-05-10T02:48:43;7.13;;;3.87;;
55815;SDS011;41744;52.404;16.942;2023-05-10T02:51:09;7.10;;;3.60;;
55815;SDS011;41744;52.404;16.942;2023-05-10T02:53:38;14.77;;;4.27;;
55815;SDS011;41744;52.404;16.942;2023-05-10T02:56:08;9.03;;;3.77;;
55815;SDS011;41744;52.404;16.942;2023-05-10T02:58:36;6.87;;;3.67;;
55815;SDS011;41744;52.404;16.942;2023-05-10T03:01:02;9.43;;;3.90;;
55815;SDS011;41744;52.404;16.942;2023-05-10T03:03:28;9.03;;;3.60;;
55815;SDS011;41744;52.404;16.942;2023-05-10T03:05:54;8.83;;;4.10;;
55815;SDS011;41744;52.404;16.942;2023-05-10T03:08:22;8.67;;;3.40;;
55815;SDS011;41744;52.404;16.942;2023-05-10T03:10:51;13.20;;;4.07;;
55815;SDS011;41744;52.404;16.942;2023-05-10T03:13:32;7.17;;;3.60;;
55815;SDS011;41744;52.404;16.942;2023-05-10T03:21:35;12.23;;;3.47;;
55815;SDS011;41744;52.404;16.942;2023-05-10T03:24:07;6.80;;;4.00;;
55815;SDS011;41744;52.404;16.942;2023-05-10T03:26:33;7.83;;;3.87;;
55815;SDS011;41744;52.404;16.942;2023-05-10T03:28:59;9.80;;;4.53;;
55815;SDS011;41744;52.404;16.942;2023-05-10T03:31:26;9.60;;;3.47;;
55815;SDS011;41744;52.404;16.942;2023-05-10T03:33:52;10.90;;;4.10;;
55815;SDS011;41744;52.404;16.942;2023-05-10T03:36:18;12.13;;;3.87;;
55815;SDS011;41744;52.404;16.942;2023-05-10T03:38:45;10.57;;;3.47;;
55815;SDS011;41744;52.404;16.942;2023-05-10T03:41:11;9.73;;;3.80;;
55815;SDS011;41744;52.404;16.942;2023-05-10T03:43:37;10.43;;;3.97;;
55815;SDS011;41744;52.404;16.942;2023-05-10T03:46:03;6.27;;;3.60;;
55815;SDS011;41744;52.404;16.942;2023-05-10T03:48:30;11.13;;;3.67;;
55815;SDS011;41744;52.404;16.942;2023-05-10T03:50:57;7.23;;;3.83;;
55815;SDS011;41744;52.404;16.942;2023-05-10T03:53:23;7.70;;;3.97;;
55815;SDS011;41744;52.404;16.942;2023-05-10T03:55:49;8.47;;;4.13;;
55815;SDS011;41744;52.404;16.942;2023-05-10T03:58:15;10.63;;;4.13;;
55815;SDS011;41744;52.404;16.942;2023-05-10T04:00:41;8.67;;;3.70;;
55815;SDS011;41744;52.404;16.942;2023-05-10T04:03:11;10.17;;;3.90;;
55815;SDS011;41744;52.404;16.942;2023-05-10T04:05:37;8.67;;;3.73;;
55815;SDS011;41744;52.404;16.942;2023-05-10T04:08:03;7.10;;;4.20;;
55815;SDS011;41744;52.404;16.942;2023-05-10T04:10:30;10.77;;;4.27;;
55815;SDS011;41744;52.404;16.942;2023-05-10T04:12:56;10.70;;;3.93;;
55815;SDS011;41744;52.404;16.942;2023-05-10T04:15:22;12.03;;;4.07;;
55815;SDS011;41744;52.404;16.942;2023-05-10T04:17:48;9.53;;;4.23;;
55815;SDS011;41744;52.404;16.942;2023-05-10T04:20:15;11.30;;;3.77;;
55815;SDS011;41744;52.404;16.942;2023-05-10T04:22:41;12.27;;;4.27;;
55815;SDS011;41744;52.404;16.942;2023-05-10T04:25:07;8.30;;;3.67;;
55815;SDS011;41744;52.404;16.942;2023-05-10T04:27:33;11.13;;;4.27;;
55815;SDS011;41744;52.404;16.942;2023-05-10T04:29:59;11.93;;;4.00;;
55815;SDS011;41744;52.404;16.942;2023-05-10T04:32:25;9.82;;;3.90;;
55815;SDS011;41744;52.404;16.942;2023-05-10T04:34:51;7.03;;;3.97;;
55815;SDS011;41744;52.404;16.942;2023-05-10T04:37:18;9.05;;;4.60;;
55815;SDS011;41744;52.404;16.942;2023-05-10T04:39:44;12.13;;;4.22;;
55815;SDS011;41744;52.404;16.942;2023-05-10T04:42:10;7.35;;;3.63;;
55815;SDS011;41744;52.404;16.942;2023-05-10T04:44:36;8.05;;;3.88;;
55815;SDS011;41744;52.404;16.942;2023-05-10T04:47:02;6.07;;;3.80;;
55815;SDS011;41744;52.404;16.942;2023-05-10T04:49:50;16.70;;;4.55;;
55815;SDS011;41744;52.404;16.942;2023-05-10T04:52:15;12.00;;;4.95;;
55815;SDS011;41744;52.404;16.942;2023-05-10T04:54:42;10.50;;;4.70;;
55815;SDS011;41744;52.404;16.942;2023-05-10T04:57:08;10.75;;;4.13;;
55815;SDS011;41744;52.404;16.942;2023-05-10T04:59:35;8.85;;;4.22;;
55815;SDS011;41744;52.404;16.942;2023-05-10T05:02:02;13.88;;;4.63;;
55815;SDS011;41744;52.404;16.942;2023-05-10T05:04:29;10.63;;;4.55;;
55815;SDS011;41744;52.404;16.942;2023-05-10T05:06:56;11.57;;;4.65;;
55815;SDS011;41744;52.404;16.942;2023-05-10T05:09:22;8.60;;;4.65;;
55815;SDS011;41744;52.404;16.942;2023-05-10T05:11:48;12.65;;;5.07;;
55815;SDS011;41744;52.404;16.942;2023-05-10T05:14:14;11.93;;;5.35;;
55815;SDS011;41744;52.404;16.942;2023-05-10T05:16:40;9.50;;;4.95;;
55815;SDS011;41744;52.404;16.942;2023-05-10T05:19:06;7.93;;;5.50;;
55815;SDS011;41744;52.404;16.942;2023-05-10T05:21:32;10.48;;;5.35;;
55815;SDS011;41744;52.404;16.942;2023-05-10T05:23:58;15.95;;;5.50;;
55815;SDS011;41744;52.404;16.942;2023-05-10T05:26:24;12.00;;;5.50;;
55815;SDS011;41744;52.404;16.942;2023-05-10T05:28:51;9.40;;;4.72;;
55815;SDS011;41744;52.404;16.942;2023-05-10T05:31:19;11.18;;;5.57;;
55815;SDS011;41744;52.404;16.942;2023-05-10T05:33:45;11.68;;;5.65;;
55815;SDS011;41744;52.404;16.942;2023-05-10T05:36:12;9.05;;;4.85;;
55815;SDS011;41744;52.404;16.942;2023-05-10T05:38:38;9.43;;;5.28;;
55815;SDS011;41744;52.404;16.942;2023-05-10T05:41:04;10.73;;;5.25;;
55815;SDS011;41744;52.404;16.942;2023-05-10T05:43:30;11.15;;;5.70;;
55815;SDS011;41744;52.404;16.942;2023-05-10T05:45:56;9.20;;;5.45;;
55815;SDS011;41744;52.404;16.942;2023-05-10T05:48:23;11.02;;;5.45;;
55815;SDS011;41744;52.404;16.942;2023-05-10T05:50:49;12.65;;;5.22;;
55815;SDS011;41744;52.404;16.942;2023-05-10T05:53:15;8.20;;;5.28;;
55815;SDS011;41744;52.404;16.942;2023-05-10T05:55:50;9.90;;;4.70;;
55815;SDS011;41744;52.404;16.942;2023-05-10T05:58:16;9.65;;;5.53;;
55815;SDS011;41744;52.404;16.942;2023-05-10T06:00:42;12.07;;;5.30;;
55815;SDS011;41744;52.404;16.942;2023-05-10T06:03:08;9.57;;;4.60;;
55815;SDS011;41744;52.404;16.942;2023-05-10T06:05:35;10.25;;;5.10;;
55815;SDS011;41744;52.404;16.942;2023-05-10T06:08:01;7.53;;;4.80;;
55815;SDS011;41744;52.404;16.942;2023-05-10T06:10:27;12.10;;;5.05;;
55815;SDS011;41744;52.404;16.942;2023-05-10T06:12:53;9.65;;;4.65;;
55815;SDS011;41744;52.404;16.942;2023-05-10T06:15:19;9.65;;;4.53;;
55815;SDS011;41744;52.404;16.942;2023-05-10T06:17:45;12.25;;;5.00;;
55815;SDS011;41744;52.404;16.942;2023-05-10T06:20:14;10.45;;;4.93;;
55815;SDS011;41744;52.404;16.942;2023-05-10T06:22:40;13.02;;;4.70;;
55815;SDS011;41744;52.404;16.942;2023-05-10T06:25:06;12.25;;;4.85;;
55815;SDS011;41744;52.404;16.942;2023-05-10T06:27:32;6.75;;;4.68;;
55815;SDS011;41744;52.404;16.942;2023-05-10T06:29:58;9.20;;;4.80;;
55815;SDS011;41744;52.404;16.942;2023-05-10T06:32:25;9.60;;;5.10;;
55815;SDS011;41744;52.404;16.942;2023-05-10T06:34:51;10.75;;;5.43;;
55815;SDS011;41744;52.404;16.942;2023-05-10T06:37:17;13.05;;;5.13;;
55815;SDS011;41744;52.404;16.942;2023-05-10T06:39:46;12.07;;;4.70;;
55815;SDS011;41744;52.404;16.942;2023-05-10T06:42:12;8.45;;;5.18;;
55815;SDS011;41744;52.404;16.942;2023-05-10T06:44:38;8.45;;;4.93;;
55815;SDS011;41744;52.404;16.942;2023-05-10T06:47:04;12.70;;;4.90;;
55815;SDS011;41744;52.404;16.942;2023-05-10T06:49:30;11.55;;;5.28;;
55815;SDS011;41744;52.404;16.942;2023-05-10T06:51:56;10.30;;;5.03;;
55815;SDS011;41744;52.404;16.942;2023-05-10T06:54:22;12.18;;;5.28;;
55815;SDS011;41744;52.404;16.942;2023-05-10T06:56:48;11.20;;;4.93;;
55815;SDS011;41744;52.404;16.942;2023-05-10T06:59:14;8.98;;;5.10;;
55815;SDS011;41744;52.404;16.942;2023-05-10T07:01:41;8.98;;;4.70;;
55815;SDS011;41744;52.404;16.942;2023-05-10T07:04:08;12.13;;;4.80;;
55815;SDS011;41744;52.404;16.942;2023-05-10T07:06:34;11.80;;;4.70;;
55815;SDS011;41744;52.404;16.942;2023-05-10T07:09:01;7.68;;;4.60;;
55815;SDS011;41744;52.404;16.942;2023-05-10T07:11:27;12.88;;;4.38;;
55815;SDS011;41744;52.404;16.942;2023-05-10T07:13:53;9.32;;;4.65;;
55815;SDS011;41744;52.404;16.942;2023-05-10T07:16:19;15.60;;;4.50;;
55815;SDS011;41744;52.404;16.942;2023-05-10T07:18:46;7.72;;;4.38;;
55815;SDS011;41744;52.404;16.942;2023-05-10T07:21:12;8.88;;;4.53;;
55815;SDS011;41744;52.404;16.942;2023-05-10T07:23:38;10.13;;;4.80;;
55815;SDS011;41744;52.404;16.942;2023-05-10T07:26:04;7.90;;;4.03;;
55815;SDS011;41744;52.404;16.942;2023-05-10T07:28:30;8.93;;;4.60;;
55815;SDS011;41744;52.404;16.942;2023-05-10T07:30:56;9.02;;;4.45;;
55815;SDS011;41744;52.404;16.942;2023-05-10T07:33:22;7.20;;;4.10;;
55815;SDS011;41744;52.404;16.942;2023-05-10T07:35:49;11.40;;;4.25;;
55815;SDS011;41744;52.404;16.942;2023-05-10T07:38:15;11.15;;;4.20;;
55815;SDS011;41744;52.404;16.942;2023-05-10T07:40:42;10.52;;;4.07;;
55815;SDS011;41744;52.404;16.942;2023-05-10T07:43:09;15.18;;;4.50;;
55815;SDS011;41744;52.404;16.942;2023-05-10T07:45:35;7.68;;;4.25;;
55815;SDS011;41744;52.404;16.942;2023-05-10T07:48:01;8.82;;;4.53;;
55815;SDS011;41744;52.404;16.942;2023-05-10T07:50:27;8.05;;;4.28;;
55815;SDS011;41744;52.404;16.942;2023-05-10T07:52:53;7.30;;;4.18;;
55815;SDS011;41744;52.404;16.942;2023-05-10T07:55:19;8.02;;;4.47;;
55815;SDS011;41744;52.404;16.942;2023-05-10T07:57:48;10.25;;;4.25;;
55815;SDS011;41744;52.404;16.942;2023-05-10T08:00:16;11.38;;;4.20;;
55815;SDS011;41744;52.404;16.942;2023-05-10T08:02:43;13.23;;;4.85;;
55815;SDS011;41744;52.404;16.942;2023-05-10T08:05:09;10.90;;;3.90;;
55815;SDS011;41744;52.404;16.942;2023-05-10T08:07:35;7.38;;;3.80;;
55815;SDS011;41744;52.404;16.942;2023-05-10T08:10:02;7.88;;;3.67;;
55815;SDS011;41744;52.404;16.942;2023-05-10T08:12:28;9.52;;;4.18;;
55815;SDS011;41744;52.404;16.942;2023-05-10T08:14:54;11.00;;;4.22;;
55815;SDS011;41744;52.404;16.942;2023-05-10T08:17:20;7.97;;;3.92;;
55815;SDS011;41744;52.404;16.942;2023-05-10T08:19:46;9.85;;;3.95;;
55815;SDS011;41744;52.404;16.942;2023-05-10T08:22:12;10.20;;;4.10;;
55815;SDS011;41744;52.404;16.942;2023-05-10T08:24:38;7.05;;;4.00;;
55815;SDS011;41744;52.404;16.942;2023-05-10T08:27:07;8.43;;;4.00;;
55815;SDS011;41744;52.404;16.942;2023-05-10T08:29:33;9.77;;;3.80;;
55815;SDS011;41744;52.404;16.942;2023-05-10T08:31:59;6.97;;;3.90;;
55815;SDS011;41744;52.404;16.942;2023-05-10T08:34:26;6.40;;;4.05;;
55815;SDS011;41744;52.404;16.942;2023-05-10T08:36:52;6.32;;;3.50;;
55815;SDS011;41744;52.404;16.942;2023-05-10T08:39:18;9.75;;;3.80;;
55815;SDS011;41744;52.404;16.942;2023-05-10T08:41:44;9.10;;;3.85;;
55815;SDS011;41744;52.404;16.942;2023-05-10T08:44:10;12.10;;;3.70;;
55815;SDS011;41744;52.404;16.942;2023-05-10T08:46:37;8.40;;;2.72;;
55815;SDS011;41744;52.404;16.942;2023-05-10T08:49:06;5.22;;;2.90;;
55815;SDS011;41744;52.404;16.942;2023-05-10T08:51:35;7.47;;;3.65;;
55815;SDS011;41744;52.404;16.942;2023-05-10T08:54:02;7.90;;;3.20;;
55815;SDS011;41744;52.404;16.942;2023-05-10T08:56:28;6.90;;;3.20;;
55815;SDS011;41744;52.404;16.942;2023-05-10T08:58:55;4.90;;;3.03;;
55815;SDS011;41744;52.404;16.942;2023-05-10T09:01:21;7.25;;;3.08;;
55815;SDS011;41744;52.404;16.942;2023-05-10T09:03:48;9.40;;;3.30;;
55815;SDS011;41744;52.404;16.942;2023-05-10T09:06:14;6.93;;;3.10;;
55815;SDS011;41744;52.404;16.942;2023-05-10T09:08:41;4.30;;;2.88;;
55815;SDS011;41744;52.404;16.942;2023-05-10T09:11:08;5.85;;;2.45;;
55815;SDS011;41744;52.404;16.942;2023-05-10T09:13:35;5.97;;;2.70;;
55815;SDS011;41744;52.404;16.942;2023-05-10T09:16:02;5.28;;;2.42;;
55815;SDS011;41744;52.404;16.942;2023-05-10T09:18:28;3.78;;;2.10;;
55815;SDS011;41744;52.404;16.942;2023-05-10T09:20:55;5.93;;;2.20;;
55815;SDS011;41744;52.404;16.942;2023-05-10T09:23:21;5.93;;;2.15;;
55815;SDS011;41744;52.404;16.942;2023-05-10T09:25:47;14.05;;;2.15;;
55815;SDS011;41744;52.404;16.942;2023-05-10T09:28:13;4.40;;;2.28;;
55815;SDS011;41744;52.404;16.942;2023-05-10T09:30:39;6.72;;;2.25;;
55815;SDS011;41744;52.404;16.942;2023-05-10T09:33:05;7.07;;;2.22;;
55815;SDS011;41744;52.404;16.942;2023-05-10T09:35:32;8.43;;;2.42;;
55815;SDS011;41744;52.404;16.942;2023-05-10T09:38:05;6.25;;;2.20;;
55815;SDS011;41744;52.404;16.942;2023-05-10T09:40:31;4.72;;;2.40;;
55815;SDS011;41744;52.404;16.942;2023-05-10T09:42:58;7.80;;;2.00;;
55815;SDS011;41744;52.404;16.942;2023-05-10T09:45:26;7.93;;;2.60;;
55815;SDS011;41744;52.404;16.942;2023-05-10T09:47:52;10.32;;;2.47;;
55815;SDS011;41744;52.404;16.942;2023-05-10T09:50:19;6.20;;;2.20;;
55815;SDS011;41744;52.404;16.942;2023-05-10T09:55:11;3.50;;;1.77;;
55815;SDS011;41744;52.404;16.942;2023-05-10T09:57:37;7.13;;;2.10;;
55815;SDS011;41744;52.404;16.942;2023-05-10T10:00:04;7.60;;;1.98;;
55815;SDS011;41744;52.404;16.942;2023-05-10T10:02:31;3.55;;;2.00;;
55815;SDS011;41744;52.404;16.942;2023-05-10T10:04:57;3.70;;;2.10;;
55815;SDS011;41744;52.404;16.942;2023-05-10T10:07:24;7.72;;;2.55;;
55815;SDS011;41744;52.404;16.942;2023-05-10T10:09:50;5.55;;;2.42;;
55815;SDS011;41744;52.404;16.942;2023-05-10T10:12:16;6.68;;;2.30;;
55815;SDS011;41744;52.404;16.942;2023-05-10T10:14:42;4.22;;;2.33;;
55815;SDS011;41744;52.404;16.942;2023-05-10T10:17:09;3.63;;;2.10;;
55815;SDS011;41744;52.404;16.942;2023-05-10T10:19:35;4.43;;;2.58;;
55815;SDS011;41744;52.404;16.942;2023-05-10T10:22:01;3.25;;;2.28;;
55815;SDS011;41744;52.404;16.942;2023-05-10T10:24:27;4.43;;;1.90;;
55815;SDS011;41744;52.404;16.942;2023-05-10T10:26:54;5.45;;;2.13;;
55815;SDS011;41744;52.404;16.942;2023-05-10T10:29:36;3.50;;;2.00;;
55815;SDS011;41744;52.404;16.942;2023-05-10T10:34:50;5.22;;;2.20;;
55815;SDS011;41744;52.404;16.942;2023-05-10T10:37:17;3.72;;;2.13;;
55815;SDS011;41744;52.404;16.942;2023-05-10T10:39:43;4.38;;;2.08;;
55815;SDS011;41744;52.404;16.942;2023-05-10T10:42:09;4.35;;;2.28;;
55815;SDS011;41744;52.404;16.942;2023-05-10T10:44:36;3.40;;;2.08;;
55815;SDS011;41744;52.404;16.942;2023-05-10T10:52:25;3.28;;;1.98;;
55815;SDS011;41744;52.404;16.942;2023-05-10T10:55:10;3.10;;;1.90;;
55815;SDS011;41744;52.404;16.942;2023-05-10T11:00:18;7.07;;;1.95;;
55815;SDS011;41744;52.404;16.942;2023-05-10T11:02:45;3.05;;;2.10;;
55815;SDS011;41744;52.404;16.942;2023-05-10T11:08:17;13.93;;;1.90;;
55815;SDS011;41744;52.404;16.942;2023-05-10T11:10:51;4.70;;;2.00;;
55815;SDS011;41744;52.404;16.942;2023-05-10T11:13:21;5.05;;;2.20;;
55815;SDS011;41744;52.404;16.942;2023-05-10T11:15:52;4.22;;;2.20;;
55815;SDS011;41744;52.404;16.942;2023-05-10T11:20:51;14.57;;;2.28;;
55815;SDS011;41744;52.404;16.942;2023-05-10T11:23:18;8.02;;;2.30;;
55815;SDS011;41744;52.404;16.942;2023-05-10T11:25:50;4.60;;;2.38;;
55815;SDS011;41744;52.404;16.942;2023-05-10T11:28:16;5.68;;;2.40;;
55815;SDS011;41744;52.404;16.942;2023-05-10T11:30:44;6.50;;;2.38;;
55815;SDS011;41744;52.404;16.942;2023-05-10T11:33:14;4.47;;;2.22;;
55815;SDS011;41744;52.404;16.942;2023-05-10T11:35:41;5.22;;;2.65;;
55815;SDS011;41744;52.404;16.942;2023-05-10T11:38:07;4.47;;;2.33;;
55815;SDS011;41744;52.404;16.942;2023-05-10T11:40:34;5.50;;;2.50;;
55815;SDS011;41744;52.404;16.942;2023-05-10T11:43:00;6.60;;;2.28;;
55815;SDS011;41744;52.404;16.942;2023-05-10T11:45:26;11.20;;;2.63;;
55815;SDS011;41744;52.404;16.942;2023-05-10T11:47:57;5.50;;;2.42;;
55815;SDS011;41744;52.404;16.942;2023-05-10T11:50:23;5.00;;;2.35;;
55815;SDS011;41744;52.404;16.942;2023-05-10T11:52:52;7.25;;;2.50;;
55815;SDS011;41744;52.404;16.942;2023-05-10T11:55:19;5.20;;;2.47;;
55815;SDS011;41744;52.404;16.942;2023-05-10T11:57:45;7.47;;;2.67;;
55815;SDS011;41744;52.404;16.942;2023-05-10T12:00:14;9.18;;;2.72;;
55815;SDS011;41744;52.404;16.942;2023-05-10T12:02:40;3.40;;;2.20;;
55815;SDS011;41744;52.404;16.942;2023-05-10T12:05:06;7.28;;;2.55;;
55815;SDS011;41744;52.404;16.942;2023-05-10T12:07:32;4.57;;;2.22;;
55815;SDS011;41744;52.404;16.942;2023-05-10T12:10:05;5.47;;;2.50;;
55815;SDS011;41744;52.404;16.942;2023-05-10T12:12:42;4.68;;;2.38;;
55815;SDS011;41744;52.404;16.942;2023-05-10T12:15:17;8.60;;;2.38;;
55815;SDS011;41744;52.404;16.942;2023-05-10T12:17:45;3.95;;;2.33;;
55815;SDS011;41744;52.404;16.942;2023-05-10T12:20:18;4.93;;;2.28;;
55815;SDS011;41744;52.404;16.942;2023-05-10T12:22:45;4.47;;;2.47;;
55815;SDS011;41744;52.404;16.942;2023-05-10T12:25:12;5.03;;;2.10;;
55815;SDS011;41744;52.404;16.942;2023-05-10T12:27:38;5.75;;;2.00;;
55815;SDS011;41744;52.404;16.942;2023-05-10T12:30:04;4.53;;;2.60;;
55815;SDS011;41744;52.404;16.942;2023-05-10T12:32:40;6.32;;;2.28;;
55815;SDS011;41744;52.404;16.942;2023-05-10T12:35:06;3.67;;;2.30;;
55815;SDS011;41744;52.404;16.942;2023-05-10T12:37:33;4.70;;;2.13;;
55815;SDS011;41744;52.404;16.942;2023-05-10T12:40:04;5.30;;;2.45;;
55815;SDS011;41744;52.404;16.942;2023-05-10T12:42:30;5.95;;;2.55;;
55815;SDS011;41744;52.404;16.942;2023-05-10T12:44:57;4.55;;;2.28;;
55815;SDS011;41744;52.404;16.942;2023-05-10T12:47:23;5.32;;;2.33;;
55815;SDS011;41744;52.404;16.942;2023-05-10T12:49:49;4.63;;;2.38;;
55815;SDS011;41744;52.404;16.942;2023-05-10T12:52:16;4.68;;;2.72;;
55815;SDS011;41744;52.404;16.942;2023-05-10T12:54:42;6.15;;;2.50;;
55815;SDS011;41744;52.404;16.942;2023-05-10T12:57:08;3.72;;;2.33;;
55815;SDS011;41744;52.404;16.942;2023-05-10T12:59:34;6.57;;;2.67;;
55815;SDS011;41744;52.404;16.942;2023-05-10T13:02:00;5.28;;;2.40;;
55815;SDS011;41744;52.404;16.942;2023-05-10T13:04:26;4.45;;;2.17;;
55815;SDS011;41744;52.404;16.942;2023-05-10T13:06:52;4.32;;;2.35;;
55815;SDS011;41744;52.404;16.942;2023-05-10T13:09:20;3.70;;;2.30;;
55815;SDS011;41744;52.404;16.942;2023-05-10T13:11:46;4.95;;;2.50;;
55815;SDS011;41744;52.404;16.942;2023-05-10T13:14:15;7.05;;;2.78;;
55815;SDS011;41744;52.404;16.942;2023-05-10T13:16:41;4.28;;;2.33;;
55815;SDS011;41744;52.404;16.942;2023-05-10T13:19:07;3.40;;;2.28;;
55815;SDS011;41744;52.404;16.942;2023-05-10T13:21:33;3.78;;;2.38;;
55815;SDS011;41744;52.404;16.942;2023-05-10T13:23:59;6.85;;;2.40;;
55815;SDS011;41744;52.404;16.942;2023-05-10T13:26:26;6.53;;;2.55;;
55815;SDS011;41744;52.404;16.942;2023-05-10T13:28:53;6.63;;;2.28;;
55815;SDS011;41744;52.404;16.942;2023-05-10T13:31:20;5.25;;;2.70;;
55815;SDS011;41744;52.404;16.942;2023-05-10T13:33:46;10.43;;;2.42;;
55815;SDS011;41744;52.404;16.942;2023-05-10T13:36:12;8.25;;;2.22;;
55815;SDS011;41744;52.404;16.942;2023-05-10T13:38:41;5.25;;;2.20;;
55815;SDS011;41744;52.404;16.942;2023-05-10T13:41:07;5.90;;;2.92;;
55815;SDS011;41744;52.404;16.942;2023-05-10T13:43:33;5.25;;;2.80;;
55815;SDS011;41744;52.404;16.942;2023-05-10T13:46:00;5.20;;;2.40;;
55815;SDS011;41744;52.404;16.942;2023-05-10T13:48:27;6.47;;;2.53;;
55815;SDS011;41744;52.404;16.942;2023-05-10T13:50:56;5.25;;;2.15;;
55815;SDS011;41744;52.404;16.942;2023-05-10T13:53:22;5.18;;;2.25;;
55815;SDS011;41744;52.404;16.942;2023-05-10T13:55:48;4.80;;;2.70;;
55815;SDS011;41744;52.404;16.942;2023-05-10T13:58:14;4.50;;;2.63;;
55815;SDS011;41744;52.404;16.942;2023-05-10T14:00:40;3.88;;;2.58;;
55815;SDS011;41744;52.404;16.942;2023-05-10T14:03:06;4.72;;;2.60;;
55815;SDS011;41744;52.404;16.942;2023-05-10T14:05:35;5.55;;;2.38;;
55815;SDS011;41744;52.404;16.942;2023-05-10T14:08:01;8.02;;;2.40;;
55815;SDS011;41744;52.404;16.942;2023-05-10T14:10:28;7.03;;;2.83;;
55815;SDS011;41744;52.404;16.942;2023-05-10T14:12:55;6.20;;;3.00;;
55815;SDS011;41744;52.404;16.942;2023-05-10T14:15:21;5.97;;;2.50;;
55815;SDS011;41744;52.404;16.942;2023-05-10T14:17:47;4.75;;;2.70;;
55815;SDS011;41744;52.404;16.942;2023-05-10T14:20:13;7.63;;;2.55;;
55815;SDS011;41744;52.404;16.942;2023-05-10T14:22:39;3.83;;;2.50;;
55815;SDS011;41744;52.404;16.942;2023-05-10T14:25:05;10.50;;;2.88;;
55815;SDS011;41744;52.404;16.942;2023-05-10T14:27:31;6.97;;;2.55;;
55815;SDS011;41744;52.404;16.942;2023-05-10T14:29:57;6.85;;;3.70;;
55815;SDS011;41744;52.404;16.942;2023-05-10T14:32:23;4.03;;;2.88;;
55815;SDS011;41744;52.404;16.942;2023-05-10T14:34:49;5.43;;;2.85;;
55815;SDS011;41744;52.404;16.942;2023-05-10T14:37:15;4.90;;;2.85;;
55815;SDS011;41744;52.404;16.942;2023-05-10T14:39:41;5.00;;;3.17;;
55815;SDS011;41744;52.404;16.942;2023-05-10T14:42:07;6.93;;;3.55;;
55815;SDS011;41744;52.404;16.942;2023-05-10T14:44:34;10.90;;;3.88;;
55815;SDS011;41744;52.404;16.942;2023-05-10T14:47:00;5.40;;;3.00;;
55815;SDS011;41744;52.404;16.942;2023-05-10T14:49:26;7.65;;;3.15;;
55815;SDS011;41744;52.404;16.942;2023-05-10T14:51:52;4.10;;;2.85;;
55815;SDS011;41744;52.404;16.942;2023-05-10T14:54:18;11.32;;;3.35;;
55815;SDS011;41744;52.404;16.942;2023-05-10T14:56:44;5.20;;;3.38;;
55815;SDS011;41744;52.404;16.942;2023-05-10T14:59:10;6.82;;;3.30;;
55815;SDS011;41744;52.404;16.942;2023-05-10T15:01:39;5.90;;;3.10;;
55815;SDS011;41744;52.404;16.942;2023-05-10T15:04:06;4.93;;;3.63;;
55815;SDS011;41744;52.404;16.942;2023-05-10T15:06:33;10.10;;;3.40;;